sensor_id;sensor_type;location;lat;lon;timestamp;pressure;altitude;pressure_sealevel;temperature;humidity
27643;BME280;15053;48.618;10.024;2023-03-08T00:01:54;92874.00;;;3.29;57.00
27643;BME280;15053;48.618;10.024;2023-03-08T00:04:21;92875.03;;;3.28;56.80
27643;BME280;15053;48.618;10.024;2023-03-08T00:06:47;92883.06;;;3.26;57.33
27643;BME280;15053;48.618;10.024;2023-03-08T00:09:14;92887.41;;;3.26;57.12
27643;BME280;15053;48.618;10.024;2023-03-08T00:11:40;92885.88;;;3.25;57.51
27643;BME280;15053;48.618;10.024;2023-03-08T00:14:06;92889.50;;;3.24;57.28
27643;BME280;15053;48.618;10.024;2023-03-08T00:16:33;92888.50;;;3.20;57.06
27643;BME280;15053;48.618;10.024;2023-03-08T00:19:00;92898.03;;;3.19;57.30
27643;BME280;15053;48.618;10.024;2023-03-08T00:21:27;92897.06;;;3.15;57.39
27643;BME280;15053;48.618;10.024;2023-03-08T00:23:53;92911.72;;;3.15;57.26
27643;BME280;15053;48.618;10.024;2023-03-08T00:26:19;92897.88;;;3.11;57.41
27643;BME280;15053;48.618;10.024;2023-03-08T00:28:46;92915.59;;;3.12;57.45
27643;BME280;15053;48.618;10.024;2023-03-08T00:31:13;92915.13;;;3.10;57.54
27643;BME280;15053;48.618;10.024;2023-03-08T00:33:39;92907.91;;;3.12;57.60
27643;BME280;15053;48.618;10.024;2023-03-08T00:36:16;92914.00;;;3.16;57.70
27643;BME280;15053;48.618;10.024;2023-03-08T00:38:44;92929.44;;;3.16;57.90
27643;BME280;15053;48.618;10.024;2023-03-08T00:41:12;92926.59;;;3.18;57.75
27643;BME280;15053;48.618;10.024;2023-03-08T00:43:39;92920.69;;;3.17;57.74
27643;BME280;15053;48.618;10.024;2023-03-08T00:46:08;92927.38;;;3.18;57.05
27643;BME280;15053;48.618;10.024;2023-03-08T00:48:34;92924.53;;;3.20;57.23
27643;BME280;15053;48.618;10.024;2023-03-08T00:51:02;92928.91;;;3.19;57.12
27643;BME280;15053;48.618;10.024;2023-03-08T00:53:29;92911.19;;;3.18;57.10
27643;BME280;15053;48.618;10.024;2023-03-08T00:55:57;92916.31;;;3.18;57.59
27643;BME280;15053;48.618;10.024;2023-03-08T00:58:28;92926.31;;;3.19;57.63
27643;BME280;15053;48.618;10.024;2023-03-08T01:00:54;92919.69;;;3.13;57.77
27643;BME280;15053;48.618;10.024;2023-03-08T01:03:21;92919.50;;;3.10;57.30
27643;BME280;15053;48.618;10.024;2023-03-08T01:05:51;92923.59;;;3.11;57.77
27643;BME280;15053;48.618;10.024;2023-03-08T01:08:18;92908.72;;;3.08;57.77
27643;BME280;15053;48.618;10.024;2023-03-08T01:10:47;92908.97;;;3.06;57.85
27643;BME280;15053;48.618;10.024;2023-03-08T01:13:14;92894.09;;;3.03;57.48
27643;BME280;15053;48.618;10.024;2023-03-08T01:15:42;92894.16;;;2.98;58.14
27643;BME280;15053;48.618;10.024;2023-03-08T01:18:09;92898.22;;;3.04;57.51
27643;BME280;15053;48.618;10.024;2023-03-08T01:20:36;92872.03;;;2.97;57.97
27643;BME280;15053;48.618;10.024;2023-03-08T01:23:02;92876.88;;;3.04;57.93
27643;BME280;15053;48.618;10.024;2023-03-08T01:25:29;92875.06;;;3.04;57.59
27643;BME280;15053;48.618;10.024;2023-03-08T01:27:55;92881.72;;;3.05;57.92
27643;BME280;15053;48.618;10.024;2023-03-08T01:30:22;92867.84;;;3.06;58.47
27643;BME280;15053;48.618;10.024;2023-03-08T01:32:49;92868.59;;;3.07;58.06
27643;BME280;15053;48.618;10.024;2023-03-08T01:35:16;92869.88;;;3.09;58.10
27643;BME280;15053;48.618;10.024;2023-03-08T01:37:49;92867.59;;;3.08;57.69
27643;BME280;15053;48.618;10.024;2023-03-08T01:40:20;92864.25;;;3.07;58.26
27643;BME280;15053;48.618;10.024;2023-03-08T01:42:47;92851.44;;;3.02;58.03
27643;BME280;15053;48.618;10.024;2023-03-08T01:46:00;92856.78;;;3.06;58.09
27643;BME280;15053;48.618;10.024;2023-03-08T01:48:58;92844.97;;;3.05;58.12
27643;BME280;15053;48.618;10.024;2023-03-08T01:54:18;92859.16;;;3.02;58.57
27643;BME280;15053;48.618;10.024;2023-03-08T01:56:48;92845.78;;;3.00;58.56
27643;BME280;15053;48.618;10.024;2023-03-08T01:59:17;92842.97;;;3.02;58.32
27643;BME280;15053;48.618;10.024;2023-03-08T02:01:45;92845.78;;;3.00;58.28
27643;BME280;15053;48.618;10.024;2023-03-08T02:04:12;92831.41;;;2.99;58.60
27643;BME280;15053;48.618;10.024;2023-03-08T02:06:39;92831.41;;;2.99;58.55
27643;BME280;15053;48.618;10.024;2023-03-08T02:09:07;92814.28;;;2.89;58.85
27643;BME280;15053;48.618;10.024;2023-03-08T02:11:35;92813.97;;;2.96;58.35
27643;BME280;15053;48.618;10.024;2023-03-08T02:14:04;92812.91;;;2.97;58.34
27643;BME280;15053;48.618;10.024;2023-03-08T02:16:32;92804.72;;;2.95;58.76
27643;BME280;15053;48.618;10.024;2023-03-08T02:19:02;92807.56;;;2.93;58.67
27643;BME280;15053;48.618;10.024;2023-03-08T02:21:31;92798.59;;;2.91;58.74
27643;BME280;15053;48.618;10.024;2023-03-08T02:24:21;92799.63;;;2.90;58.76
27643;BME280;15053;48.618;10.024;2023-03-08T02:26:50;92792.69;;;2.90;58.75
27643;BME280;15053;48.618;10.024;2023-03-08T02:29:18;92788.09;;;2.87;58.62
27643;BME280;15053;48.618;10.024;2023-03-08T02:31:45;92788.34;;;2.86;59.03
27643;BME280;15053;48.618;10.024;2023-03-08T02:34:11;92798.63;;;2.86;59.05
27643;BME280;15053;48.618;10.024;2023-03-08T02:36:38;92793.03;;;2.84;59.18
27643;BME280;15053;48.618;10.024;2023-03-08T02:39:04;92792.25;;;2.83;59.08
27643;BME280;15053;48.618;10.024;2023-03-08T02:41:31;92800.25;;;2.82;59.23
27643;BME280;15053;48.618;10.024;2023-03-08T02:43:57;92791.28;;;2.79;59.40
27643;BME280;15053;48.618;10.024;2023-03-08T02:46:24;92793.56;;;2.81;59.27
27643;BME280;15053;48.618;10.024;2023-03-08T02:48:50;92797.94;;;2.80;58.83
27643;BME280;15053;48.618;10.024;2023-03-08T02:51:19;92786.91;;;2.80;58.80
27643;BME280;15053;48.618;10.024;2023-03-08T02:53:45;92781.47;;;2.81;59.52
27643;BME280;15053;48.618;10.024;2023-03-08T02:56:12;92785.84;;;2.81;59.09
27643;BME280;15053;48.618;10.024;2023-03-08T02:58:38;92771.19;;;2.81;59.21
27643;BME280;15053;48.618;10.024;2023-03-08T03:01:10;92776.63;;;2.80;59.16
27643;BME280;15053;48.618;10.024;2023-03-08T03:03:39;92781.78;;;2.80;59.20
27643;BME280;15053;48.618;10.024;2023-03-08T03:06:17;92773.78;;;2.81;59.21
27643;BME280;15053;48.618;10.024;2023-03-08T03:08:47;92774.53;;;2.82;58.89
27643;BME280;15053;48.618;10.024;2023-03-08T03:11:19;92772.22;;;2.80;59.50
27643;BME280;15053;48.618;10.024;2023-03-08T03:13:56;92773.00;;;2.81;59.83
27643;BME280;15053;48.618;10.024;2023-03-08T03:16:27;92763.97;;;2.83;59.53
27643;BME280;15053;48.618;10.024;2023-03-08T03:18:55;92769.88;;;2.84;59.40
27643;BME280;15053;48.618;10.024;2023-03-08T03:21:22;92762.19;;;2.84;59.40
27643;BME280;15053;48.618;10.024;2023-03-08T03:23:49;92758.09;;;2.83;59.63
27643;BME280;15053;48.618;10.024;2023-03-08T03:26:21;92756.06;;;2.80;59.42
27643;BME280;15053;48.618;10.024;2023-03-08T03:28:51;92755.56;;;2.78;60.07
27643;BME280;15053;48.618;10.024;2023-03-08T03:31:20;92754.59;;;2.74;59.39
27643;BME280;15053;48.618;10.024;2023-03-08T03:33:47;92753.00;;;2.78;59.36
27643;BME280;15053;48.618;10.024;2023-03-08T03:36:18;92726.16;;;2.65;60.09
27643;BME280;15053;48.618;10.024;2023-03-08T03:38:46;92747.84;;;2.78;60.20
27643;BME280;15053;48.618;10.024;2023-03-08T03:41:16;92741.38;;;2.80;59.55
27643;BME280;15053;48.618;10.024;2023-03-08T03:43:43;92742.38;;;2.84;60.04
27643;BME280;15053;48.618;10.024;2023-03-08T03:46:12;92738.00;;;2.85;59.54
27643;BME280;15053;48.618;10.024;2023-03-08T03:48:40;92730.31;;;2.85;60.02
27643;BME280;15053;48.618;10.024;2023-03-08T03:51:16;92740.28;;;2.86;60.16
27643;BME280;15053;48.618;10.024;2023-03-08T03:53:47;92734.88;;;2.88;59.89
27643;BME280;15053;48.618;10.024;2023-03-08T03:56:20;92738.19;;;2.88;59.31
27643;BME280;15053;48.618;10.024;2023-03-08T03:58:48;92722.78;;;2.88;59.67
27643;BME280;15053;48.618;10.024;2023-03-08T04:01:20;92727.91;;;2.88;59.95
27643;BME280;15053;48.618;10.024;2023-03-08T04:03:48;92722.59;;;2.85;59.59
27643;BME280;15053;48.618;10.024;2023-03-08T04:06:17;92726.19;;;2.84;59.62
27643;BME280;15053;48.618;10.024;2023-03-08T04:08:45;92718.97;;;2.86;59.51
27643;BME280;15053;48.618;10.024;2023-03-08T04:11:20;92727.72;;;2.85;60.47
27643;BME280;15053;48.618;10.024;2023-03-08T04:13:48;92712.84;;;2.82;60.43
27643;BME280;15053;48.618;10.024;2023-03-08T04:16:22;92702.91;;;2.75;60.36
27643;BME280;15053;48.618;10.024;2023-03-08T04:18:54;92707.72;;;2.82;60.61
27643;BME280;15053;48.618;10.024;2023-03-08T04:21:22;92709.25;;;2.83;60.53
27643;BME280;15053;48.618;10.024;2023-03-08T04:23:50;92695.13;;;2.80;60.39
27643;BME280;15053;48.618;10.024;2023-03-08T04:26:16;92703.91;;;2.79;60.90
27643;BME280;15053;48.618;10.024;2023-03-08T04:28:43;92695.72;;;2.77;60.58
27643;BME280;15053;48.618;10.024;2023-03-08T04:31:13;92689.78;;;2.77;60.69
27643;BME280;15053;48.618;10.024;2023-03-08T04:33:40;92687.78;;;2.74;61.34
27643;BME280;15053;48.618;10.024;2023-03-08T04:36:07;92688.31;;;2.71;61.21
27643;BME280;15053;48.618;10.024;2023-03-08T04:38:34;92684.75;;;2.67;61.35
27643;BME280;15053;48.618;10.024;2023-03-08T04:41:03;92681.50;;;2.61;61.25
27643;BME280;15053;48.618;10.024;2023-03-08T04:43:50;92669.00;;;2.55;61.56
27643;BME280;15053;48.618;10.024;2023-03-08T04:46:24;92663.72;;;2.46;62.46
27643;BME280;15053;48.618;10.024;2023-03-08T04:48:51;92665.59;;;2.41;63.16
27643;BME280;15053;48.618;10.024;2023-03-08T04:51:24;92658.13;;;2.39;63.57
27643;BME280;15053;48.618;10.024;2023-03-08T04:53:53;92650.16;;;2.41;63.25
27643;BME280;15053;48.618;10.024;2023-03-08T04:56:20;92659.69;;;2.40;63.09
27643;BME280;15053;48.618;10.024;2023-03-08T04:58:48;92674.31;;;2.39;63.41
27643;BME280;15053;48.618;10.024;2023-03-08T05:01:19;92670.50;;;2.37;63.58
27643;BME280;15053;48.618;10.024;2023-03-08T05:03:48;92668.69;;;2.37;63.60
27643;BME280;15053;48.618;10.024;2023-03-08T05:06:18;92666.91;;;2.38;64.46
27643;BME280;15053;48.618;10.024;2023-03-08T05:08:45;92674.59;;;2.38;64.11
27643;BME280;15053;48.618;10.024;2023-03-08T05:11:24;92669.47;;;2.38;64.75
27643;BME280;15053;48.618;10.024;2023-03-08T05:13:55;92668.41;;;2.39;64.53
27643;BME280;15053;48.618;10.024;2023-03-08T05:16:24;92668.16;;;2.41;64.88
27643;BME280;15053;48.618;10.024;2023-03-08T05:18:52;92652.44;;;2.42;65.38
27643;BME280;15053;48.618;10.024;2023-03-08T05:21:22;92653.91;;;2.48;64.83
27643;BME280;15053;48.618;10.024;2023-03-08T05:23:57;92644.13;;;2.50;64.58
27643;BME280;15053;48.618;10.024;2023-03-08T05:26:25;92640.25;;;2.53;65.17
27643;BME280;15053;48.618;10.024;2023-03-08T05:28:53;92630.47;;;2.55;64.98
27643;BME280;15053;48.618;10.024;2023-03-08T05:31:23;92634.50;;;2.61;65.40
27643;BME280;15053;48.618;10.024;2023-03-08T05:33:52;92629.91;;;2.58;64.90
27643;BME280;15053;48.618;10.024;2023-03-08T05:36:26;92623.72;;;2.59;65.49
27643;BME280;15053;48.618;10.024;2023-03-08T05:38:55;92619.66;;;2.58;65.68
27643;BME280;15053;48.618;10.024;2023-03-08T05:41:28;92610.69;;;2.55;65.47
27643;BME280;15053;48.618;10.024;2023-03-08T05:43:59;92611.44;;;2.56;65.25
27643;BME280;15053;48.618;10.024;2023-03-08T05:46:28;92619.91;;;2.56;65.74
27643;BME280;15053;48.618;10.024;2023-03-08T05:48:58;92615.28;;;2.58;65.38
27643;BME280;15053;48.618;10.024;2023-03-08T05:51:27;92620.13;;;2.60;65.69
27643;BME280;15053;48.618;10.024;2023-03-08T05:53:54;92620.59;;;2.62;65.67
27643;BME280;15053;48.618;10.024;2023-03-08T05:56:22;92621.66;;;2.61;66.23
27643;BME280;15053;48.618;10.024;2023-03-08T05:58:57;92613.25;;;2.55;66.55
27643;BME280;15053;48.618;10.024;2023-03-08T06:01:26;92630.88;;;2.62;66.61
27643;BME280;15053;48.618;10.024;2023-03-08T06:03:57;92630.31;;;2.65;66.11
27643;BME280;15053;48.618;10.024;2023-03-08T06:06:28;92634.91;;;2.68;66.19
27643;BME280;15053;48.618;10.024;2023-03-08T06:08:58;92634.06;;;2.72;66.51
27643;BME280;15053;48.618;10.024;2023-03-08T06:11:25;92631.50;;;2.72;66.84
27643;BME280;15053;48.618;10.024;2023-03-08T06:13:54;92630.69;;;2.77;66.27
27643;BME280;15053;48.618;10.024;2023-03-08T06:16:23;92618.78;;;2.81;66.66
27643;BME280;15053;48.618;10.024;2023-03-08T06:18:50;92614.63;;;2.85;66.56
27643;BME280;15053;48.618;10.024;2023-03-08T06:21:18;92613.53;;;2.91;66.39
27643;BME280;15053;48.618;10.024;2023-03-08T06:23:51;92619.41;;;2.91;66.46
27643;BME280;15053;48.618;10.024;2023-03-08T06:26:18;92611.69;;;2.91;66.45
27643;BME280;15053;48.618;10.024;2023-03-08T06:28:45;92627.81;;;2.97;66.37
27643;BME280;15053;48.618;10.024;2023-03-08T06:31:14;92622.09;;;3.00;66.27
27643;BME280;15053;48.618;10.024;2023-03-08T06:33:41;92607.44;;;3.01;66.32
27643;BME280;15053;48.618;10.024;2023-03-08T06:36:15;92599.47;;;3.02;66.56
27643;BME280;15053;48.618;10.024;2023-03-08T06:38:44;92614.06;;;3.07;66.65
27643;BME280;15053;48.618;10.024;2023-03-08T06:41:11;92608.81;;;3.12;66.92
27643;BME280;15053;48.618;10.024;2023-03-08T06:43:38;92613.41;;;3.15;66.88
27643;BME280;15053;48.618;10.024;2023-03-08T06:46:06;92610.53;;;3.16;66.96
27643;BME280;15053;48.618;10.024;2023-03-08T06:48:34;92611.31;;;3.17;66.76
27643;BME280;15053;48.618;10.024;2023-03-08T06:51:01;92605.59;;;3.20;66.95
27643;BME280;15053;48.618;10.024;2023-03-08T06:53:29;92602.78;;;3.21;67.08
27643;BME280;15053;48.618;10.024;2023-03-08T06:56:01;92598.94;;;3.19;67.27
27643;BME280;15053;48.618;10.024;2023-03-08T06:58:32;92596.72;;;3.12;67.42
27643;BME280;15053;48.618;10.024;2023-03-08T07:00:58;92591.59;;;3.12;67.31
27643;BME280;15053;48.618;10.024;2023-03-08T07:03:26;92593.41;;;3.12;67.67
27643;BME280;15053;48.618;10.024;2023-03-08T07:05:58;92592.84;;;3.15;67.49
27643;BME280;15053;48.618;10.024;2023-03-08T07:08:24;92582.75;;;3.18;67.83
27643;BME280;15053;48.618;10.024;2023-03-08T07:10:51;92592.75;;;3.20;67.75
27643;BME280;15053;48.618;10.024;2023-03-08T07:13:17;92577.06;;;3.21;67.75
27643;BME280;15053;48.618;10.024;2023-03-08T07:15:45;92573.72;;;3.21;67.80
27643;BME280;15053;48.618;10.024;2023-03-08T07:18:11;92556.47;;;3.21;68.13
27643;BME280;15053;48.618;10.024;2023-03-08T07:20:41;92557.22;;;3.22;68.22
27643;BME280;15053;48.618;10.024;2023-03-08T07:23:08;92537.41;;;3.22;68.48
27643;BME280;15053;48.618;10.024;2023-03-08T07:25:36;92520.47;;;3.21;69.01
27643;BME280;15053;48.618;10.024;2023-03-08T07:28:03;92507.78;;;3.11;69.13
27643;BME280;15053;48.618;10.024;2023-03-08T07:30:30;92526.00;;;3.28;68.96
27643;BME280;15053;48.618;10.024;2023-03-08T07:32:56;92530.56;;;3.31;69.34
27643;BME280;15053;48.618;10.024;2023-03-08T07:35:23;92530.19;;;3.38;69.66
27643;BME280;15053;48.618;10.024;2023-03-08T07:37:49;92526.78;;;3.42;69.53
27643;BME280;15053;48.618;10.024;2023-03-08T07:40:16;92522.78;;;3.50;69.27
27643;BME280;15053;48.618;10.024;2023-03-08T07:42:43;92520.66;;;3.52;69.20
27643;BME280;15053;48.618;10.024;2023-03-08T07:45:27;92530.22;;;3.51;68.75
27643;BME280;15053;48.618;10.024;2023-03-08T07:47:54;92526.59;;;3.52;68.97
27643;BME280;15053;48.618;10.024;2023-03-08T07:50:20;92519.34;;;3.54;68.53
27643;BME280;15053;48.618;10.024;2023-03-08T07:52:47;92513.03;;;3.61;69.31
27643;BME280;15053;48.618;10.024;2023-03-08T07:55:13;92510.38;;;3.66;69.49
27643;BME280;15053;48.618;10.024;2023-03-08T07:57:40;92496.94;;;3.69;69.49
27643;BME280;15053;48.618;10.024;2023-03-08T08:00:07;92495.78;;;3.75;69.39
27643;BME280;15053;48.618;10.024;2023-03-08T08:02:37;92491.78;;;3.82;69.20
27643;BME280;15053;48.618;10.024;2023-03-08T08:05:04;92500.25;;;3.96;69.41
27643;BME280;15053;48.618;10.024;2023-03-08T08:07:31;92493.38;;;4.05;69.13
27643;BME280;15053;48.618;10.024;2023-03-08T08:09:57;92473.69;;;4.09;68.92
27643;BME280;15053;48.618;10.024;2023-03-08T08:12:24;92475.31;;;4.19;68.82
27643;BME280;15053;48.618;10.024;2023-03-08T08:14:51;92470.91;;;4.20;68.88
27643;BME280;15053;48.618;10.024;2023-03-08T08:17:18;92477.56;;;4.21;68.88
27643;BME280;15053;48.618;10.024;2023-03-08T08:19:45;92473.19;;;4.21;68.54
27643;BME280;15053;48.618;10.024;2023-03-08T08:22:12;92459.66;;;4.15;68.58
27643;BME280;15053;48.618;10.024;2023-03-08T08:24:38;92473.13;;;4.12;68.61
27643;BME280;15053;48.618;10.024;2023-03-08T08:27:05;92479.59;;;4.10;68.70
27643;BME280;15053;48.618;10.024;2023-03-08T08:29:31;92468.53;;;4.09;68.96
27643;BME280;15053;48.618;10.024;2023-03-08T08:31:58;92475.03;;;4.07;68.69
27643;BME280;15053;48.618;10.024;2023-03-08T08:34:24;92476.28;;;4.09;68.28
27643;BME280;15053;48.618;10.024;2023-03-08T08:36:51;92468.72;;;4.13;68.38
27643;BME280;15053;48.618;10.024;2023-03-08T08:39:17;92466.63;;;4.15;68.49
27643;BME280;15053;48.618;10.024;2023-03-08T08:41:44;92454.03;;;4.13;68.66
27643;BME280;15053;48.618;10.024;2023-03-08T08:44:10;92442.50;;;4.11;68.29
27643;BME280;15053;48.618;10.024;2023-03-08T08:46:36;92437.38;;;4.11;68.48
27643;BME280;15053;48.618;10.024;2023-03-08T08:49:03;92428.41;;;4.08;68.87
27643;BME280;15053;48.618;10.024;2023-03-08T08:51:30;92416.28;;;4.09;68.69
27643;BME280;15053;48.618;10.024;2023-03-08T08:53:57;92406.00;;;4.09;68.83
27643;BME280;15053;48.618;10.024;2023-03-08T08:56:26;92395.19;;;4.07;69.33
27643;BME280;15053;48.618;10.024;2023-03-08T08:58:59;92382.31;;;4.07;69.55
27643;BME280;15053;48.618;10.024;2023-03-08T09:01:29;92380.25;;;4.09;69.84
27643;BME280;15053;48.618;10.024;2023-03-08T09:03:56;92379.94;;;4.10;70.53
27643;BME280;15053;48.618;10.024;2023-03-08T09:06:24;92352.38;;;4.11;70.63
27643;BME280;15053;48.618;10.024;2023-03-08T09:08:52;92377.81;;;4.12;70.71
27643;BME280;15053;48.618;10.024;2023-03-08T09:11:20;92361.31;;;4.13;71.33
27643;BME280;15053;48.618;10.024;2023-03-08T09:13:47;92372.53;;;4.17;71.04
27643;BME280;15053;48.618;10.024;2023-03-08T09:16:20;92363.00;;;4.18;71.30
27643;BME280;15053;48.618;10.024;2023-03-08T09:18:47;92370.91;;;4.22;71.51
27643;BME280;15053;48.618;10.024;2023-03-08T09:21:14;92377.28;;;4.24;71.69
27643;BME280;15053;48.618;10.024;2023-03-08T09:23:41;92371.56;;;4.27;71.66
27643;BME280;15053;48.618;10.024;2023-03-08T09:26:07;92366.59;;;4.31;71.67
27643;BME280;15053;48.618;10.024;2023-03-08T09:28:34;92362.34;;;4.35;71.46
27643;BME280;15053;48.618;10.024;2023-03-08T09:31:05;92363.75;;;4.41;71.74
27643;BME280;15053;48.618;10.024;2023-03-08T09:33:41;92358.78;;;4.44;70.91
27643;BME280;15053;48.618;10.024;2023-03-08T09:36:09;92358.94;;;4.48;70.99
27643;BME280;15053;48.618;10.024;2023-03-08T09:38:35;92351.09;;;4.53;70.79
27643;BME280;15053;48.618;10.024;2023-03-08T09:41:15;92346.28;;;4.60;70.66
27643;BME280;15053;48.618;10.024;2023-03-08T09:46:49;92345.00;;;4.80;70.96
27643;BME280;15053;48.618;10.024;2023-03-08T09:49:24;92338.06;;;4.89;70.80
27643;BME280;15053;48.618;10.024;2023-03-08T09:52:02;92334.44;;;4.98;70.84
27643;BME280;15053;48.618;10.024;2023-03-08T09:54:31;92332.03;;;5.02;70.46
27643;BME280;15053;48.618;10.024;2023-03-08T09:57:00;92329.31;;;5.07;70.48
27643;BME280;15053;48.618;10.024;2023-03-08T09:59:35;92317.19;;;5.16;69.86
27643;BME280;15053;48.618;10.024;2023-03-08T10:02:23;92320.53;;;5.25;70.53
27643;BME280;15053;48.618;10.024;2023-03-08T10:05:11;92314.47;;;5.29;70.00
27643;BME280;15053;48.618;10.024;2023-03-08T10:21:29;92300.38;;;5.44;70.51
27643;BME280;15053;48.618;10.024;2023-03-08T10:24:03;92288.69;;;5.55;70.81
27643;BME280;15053;48.618;10.024;2023-03-08T10:26:36;92286.72;;;5.69;70.18
27643;BME280;15053;48.618;10.024;2023-03-08T10:29:03;92288.38;;;5.82;71.09
27643;BME280;15053;48.618;10.024;2023-03-08T10:31:30;92275.94;;;5.93;70.64
27643;BME280;15053;48.618;10.024;2023-03-08T10:34:10;92279.41;;;6.06;70.05
27643;BME280;15053;48.618;10.024;2023-03-08T10:36:58;92274.41;;;6.09;70.58
27643;BME280;15053;48.618;10.024;2023-03-08T10:39:26;92271.03;;;6.17;70.80
27643;BME280;15053;48.618;10.024;2023-03-08T10:41:58;92269.81;;;6.23;70.17
27643;BME280;15053;48.618;10.024;2023-03-08T10:47:23;92280.06;;;6.40;70.88
27643;BME280;15053;48.618;10.024;2023-03-08T10:50:13;92269.28;;;6.47;70.88
27643;BME280;15053;48.618;10.024;2023-03-08T10:52:41;92261.50;;;6.47;70.29
27643;BME280;15053;48.618;10.024;2023-03-08T10:57:34;92264.22;;;6.59;71.26
27643;BME280;15053;48.618;10.024;2023-03-08T11:02:46;92271.91;;;6.68;70.97
27643;BME280;15053;48.618;10.024;2023-03-08T11:05:22;92264.28;;;6.71;71.36
27643;BME280;15053;48.618;10.024;2023-03-08T11:07:51;92268.22;;;6.77;71.46
27643;BME280;15053;48.618;10.024;2023-03-08T11:10:19;92266.53;;;6.81;72.38
27643;BME280;15053;48.618;10.024;2023-03-08T11:13:22;92259.31;;;6.95;73.22
27643;BME280;15053;48.618;10.024;2023-03-08T11:16:04;92262.28;;;7.06;72.20
27643;BME280;15053;48.618;10.024;2023-03-08T11:21:37;92242.69;;;7.26;73.40
27643;BME280;15053;48.618;10.024;2023-03-08T11:24:15;92239.25;;;7.34;73.48
27643;BME280;15053;48.618;10.024;2023-03-08T11:35:47;92246.81;;;7.80;73.04
27643;BME280;15053;48.618;10.024;2023-03-08T11:38:23;92245.53;;;7.86;73.12
27643;BME280;15053;48.618;10.024;2023-03-08T11:46:12;92233.97;;;8.16;72.24
27643;BME280;15053;48.618;10.024;2023-03-08T11:52:04;92232.63;;;8.31;72.34
27643;BME280;15053;48.618;10.024;2023-03-08T11:54:57;92233.19;;;8.37;72.38
27643;BME280;15053;48.618;10.024;2023-03-08T11:57:30;92236.88;;;8.48;72.16
27643;BME280;15053;48.618;10.024;2023-03-08T12:00:04;92231.13;;;8.54;72.77
27643;BME280;15053;48.618;10.024;2023-03-08T12:02:42;92230.19;;;8.59;72.23
27643;BME280;15053;48.618;10.024;2023-03-08T12:05:29;92221.41;;;8.63;72.61
27643;BME280;15053;48.618;10.024;2023-03-08T12:08:02;92222.31;;;8.67;72.15
27643;BME280;15053;48.618;10.024;2023-03-08T12:11:00;92223.91;;;8.72;72.60
27643;BME280;15053;48.618;10.024;2023-03-08T12:13:32;92221.75;;;8.74;72.42
27643;BME280;15053;48.618;10.024;2023-03-08T12:16:07;92230.63;;;8.73;71.99
27643;BME280;15053;48.618;10.024;2023-03-08T12:18:41;92225.84;;;8.75;72.62
27643;BME280;15053;48.618;10.024;2023-03-08T12:21:17;92225.84;;;8.75;72.38
27643;BME280;15053;48.618;10.024;2023-03-08T12:23:59;92235.16;;;8.76;72.56
27643;BME280;15053;48.618;10.024;2023-03-08T12:26:47;92226.72;;;8.79;73.09
27643;BME280;15053;48.618;10.024;2023-03-08T12:31:49;92217.63;;;8.85;73.78
27643;BME280;15053;48.618;10.024;2023-03-08T12:36:52;92242.53;;;8.98;74.00
27643;BME280;15053;48.618;10.024;2023-03-08T12:39:29;92234.16;;;9.05;74.28
27643;BME280;15053;48.618;10.024;2023-03-08T12:44:28;92248.75;;;9.09;74.20
27643;BME280;15053;48.618;10.024;2023-03-08T12:46:58;92233.19;;;9.09;74.53
27643;BME280;15053;48.618;10.024;2023-03-08T12:49:33;92238.47;;;9.13;74.27
27643;BME280;15053;48.618;10.024;2023-03-08T12:52:23;92240.78;;;9.14;74.55
27643;BME280;15053;48.618;10.024;2023-03-08T12:55:00;92232.75;;;9.19;74.27
27643;BME280;15053;48.618;10.024;2023-03-08T12:57:30;92238.78;;;9.23;73.94
27643;BME280;15053;48.618;10.024;2023-03-08T13:00:02;92243.66;;;9.25;73.62
27643;BME280;15053;48.618;10.024;2023-03-08T13:02:33;92240.72;;;9.26;73.59
27643;BME280;15053;48.618;10.024;2023-03-08T13:05:16;92232.09;;;9.22;73.42
27643;BME280;15053;48.618;10.024;2023-03-08T13:07:53;92244.09;;;9.27;73.72
27643;BME280;15053;48.618;10.024;2023-03-08T13:10:29;92238.13;;;9.26;73.68
27643;BME280;15053;48.618;10.024;2023-03-08T13:15:37;92246.69;;;9.27;73.49
27643;BME280;15053;48.618;10.024;2023-03-08T13:18:14;92249.41;;;9.30;73.36
27643;BME280;15053;48.618;10.024;2023-03-08T13:21:02;92239.00;;;9.30;73.81
27643;BME280;15053;48.618;10.024;2023-03-08T13:23:42;92239.09;;;9.34;74.14
27643;BME280;15053;48.618;10.024;2023-03-08T13:28:51;92247.34;;;9.36;74.42
27643;BME280;15053;48.618;10.024;2023-03-08T13:31:21;92252.59;;;9.39;74.01
27643;BME280;15053;48.618;10.024;2023-03-08T13:33:51;92241.16;;;9.40;74.33
27643;BME280;15053;48.618;10.024;2023-03-08T13:36:28;92238.97;;;9.42;74.37
27643;BME280;15053;48.618;10.024;2023-03-08T13:39:01;92237.88;;;9.43;74.64
27643;BME280;15053;48.618;10.024;2023-03-08T13:41:33;92250.22;;;9.46;74.69
27643;BME280;15053;48.618;10.024;2023-03-08T13:46:41;92253.59;;;9.47;74.70
27643;BME280;15053;48.618;10.024;2023-03-08T13:49:29;92246.31;;;9.53;75.03
27643;BME280;15053;48.618;10.024;2023-03-08T13:51:59;92249.84;;;9.72;75.08
27643;BME280;15053;48.618;10.024;2023-03-08T13:54:31;92251.63;;;9.84;74.84
27643;BME280;15053;48.618;10.024;2023-03-08T13:57:00;92249.38;;;9.82;74.33
27643;BME280;15053;48.618;10.024;2023-03-08T13:59:28;92235.94;;;9.80;nan
27643;BME280;15053;48.618;10.024;2023-03-08T14:01:56;92235.19;;;9.80;75.05
27643;BME280;15053;48.618;10.024;2023-03-08T14:04:25;92236.59;;;9.77;74.96
27643;BME280;15053;48.618;10.024;2023-03-08T14:06:55;92236.16;;;9.75;75.21
27643;BME280;15053;48.618;10.024;2023-03-08T14:09:22;92231.31;;;9.74;75.54
27643;BME280;15053;48.618;10.024;2023-03-08T14:12:04;92230.31;;;9.78;75.86
27643;BME280;15053;48.618;10.024;2023-03-08T14:14:37;92217.41;;;9.82;75.78
27643;BME280;15053;48.618;10.024;2023-03-08T14:17:05;92218.16;;;9.82;75.95
27643;BME280;15053;48.618;10.024;2023-03-08T14:19:38;92212.31;;;9.85;75.98
27643;BME280;15053;48.618;10.024;2023-03-08T14:22:11;92210.88;;;9.88;76.12